Main page
METAR-TAF:

METAR-TAF

Airports :

Owensboro–Daviess County Regional Airport

Owensboro, Kentucky, United States

latitude: 37-44N, longitude: 087-10W, elevation: 407 ft

Current weather observation

The report was made 55 minutes ago, at 06:56 UTC
Calm wind
Temperature 72°F
Humidity 94%
Pressure 30.15 in. Hg
Visibility: 10 miles
Clear sky

METAR: KOWB 130656Z AUTO 00000KT 10SM CLR 22/21 A3015 RMK AO2 SLP204 T02170206

Time: 02:51 (07:51 UTC)

Forecast

The report was made 2 hours and 31 minutes ago, at 05:20 UTC
Forecast valid from 13 at 06 UTC to 14 at 06 UTC
Wind 0 mph from the North
Visibility: 6 miles
Clear sky
Temporary
from 13 at 08 UTC to 13 at 12 UTC
Visibility: 2 miles
mist, Shallow fog
From 13 at 1500 UTC
Wind 6 mph from the West/Southwest
Visibility: 6 miles
Clear sky

TAF: KOWB 130520Z 1306/1406 00000KT P6SM SKC TEMPO 1308/1312 2SM BR MIFG FM131500 24005KT P6SM SKC

Weather observations and forecasts of more than 4000 airports (METAR and TAF reports).

The available stations are represented by yellow and red dots on the map.

Hover mouse over dot to see the name of the station.

Then click to see weather observations and forecasts.

To change the map : click on the green buttons with a black cross to zoom in, on the green button with a dash to zoom out, or on the green arrows for adjacent maps.


METAR-TAF: